Time;durP1;ratioP1;P1;durP2;ratioP2;P2;SDS_P1;SDS_P2;PMS_P1;PMS_P2;Temp;Humidity;BMP_temperature;BMP_pressure;BME280_temperature;BME280_humidity;BME280_pressure;Samples;Min_cycle;Max_cycle;Signal;HPM_P1;HPM_P2
2023/02/16 00:00:19;;;;;;;28.88;16.13;;;4.60;99.90;;;;;;5011930;28;20367;-75
2023/02/16 00:02:45;;;;;;;31.05;16.75;;;4.70;99.90;;;;;;5027543;28;20041;-75
2023/02/16 00:05:23;;;;;;;29.67;16.98;;;4.70;99.90;;;;;;5026317;28;20041;-75
2023/02/16 00:07:50;;;;;;;26.65;15.82;;;4.70;99.90;;;;;;5013559;28;20050;-74
2023/02/16 00:10:15;;;;;;;26.77;15.73;;;4.70;99.90;;;;;;5020009;28;20053;-75
2023/02/16 00:15:25;;;;;;;26.40;15.27;;;4.60;99.90;;;;;;5012417;28;20057;-75
2023/02/16 00:17:52;;;;;;;30.83;16.98;;;4.60;99.90;;;;;;5005632;28;20045;-75
2023/02/16 00:20:17;;;;;;;31.90;16.85;;;4.70;99.90;;;;;;5024905;28;20049;-75
2023/02/16 00:22:43;;;;;;;29.52;16.77;;;4.70;99.90;;;;;;5023568;28;20083;-75
2023/02/16 00:25:09;;;;;;;30.30;18.13;;;4.60;99.90;;;;;;5020749;28;20050;-75
2023/02/16 00:27:35;;;;;;;28.83;16.55;;;4.60;99.90;;;;;;5024274;28;20118;-75
2023/02/16 00:30:01;;;;;;;31.73;18.55;;;4.60;99.90;;;;;;4998644;28;20037;-75
2023/02/16 00:32:26;;;;;;;31.23;17.73;;;4.50;99.90;;;;;;5006096;28;20128;-75
2023/02/16 00:34:52;;;;;;;31.33;18.30;;;4.60;99.90;;;;;;5032186;28;20464;-75
2023/02/16 00:37:18;;;;;;;32.67;17.77;;;4.50;99.90;;;;;;5014879;28;20053;-75
2023/02/16 00:39:44;;;;;;;32.15;17.30;;;4.60;99.90;;;;;;5011428;28;20053;-75
2023/02/16 00:42:17;;;;;;;29.00;17.27;;;4.60;99.90;;;;;;5017080;28;20045;-75
2023/02/16 00:44:49;;;;;;;28.50;17.05;;;4.70;99.90;;;;;;5018568;28;20576;-75
2023/02/16 00:47:20;;;;;;;34.10;17.83;;;4.60;99.90;;;;;;5021043;28;20045;-75
2023/02/16 00:49:50;;;;;;;30.40;16.80;;;4.60;99.90;;;;;;5030132;28;20049;-75
2023/02/16 00:52:22;;;;;;;30.38;17.13;;;4.60;99.90;;;;;;5006548;28;20037;-75
2023/02/16 00:54:48;;;;;;;29.33;15.93;;;4.60;99.90;;;;;;5037647;28;20490;-75
2023/02/16 00:57:17;;;;;;;33.03;19.02;;;4.50;99.90;;;;;;4990439;28;20064;-75
2023/02/16 00:59:42;;;;;;;28.70;16.55;;;4.50;99.90;;;;;;5049971;28;20041;-75
2023/02/16 01:02:08;;;;;;;29.60;17.25;;;4.50;99.90;;;;;;5035949;28;20052;-74
2023/02/16 01:04:34;;;;;;;30.13;16.60;;;4.60;99.90;;;;;;5016935;28;20061;-75
2023/02/16 01:12:28;;;;;;;34.88;17.75;;;4.60;99.90;;;;;;5028982;28;20033;-74
2023/02/16 01:14:54;;;;;;;36.72;18.15;;;4.60;99.90;;;;;;5006081;28;20056;-74
2023/02/16 01:17:20;;;;;;;34.72;18.65;;;4.60;99.90;;;;;;5037319;28;20168;-74
2023/02/16 01:19:45;;;;;;;31.33;17.63;;;4.50;99.90;;;;;;4983590;28;20132;-74
2023/02/16 01:22:11;;;;;;;46.05;23.77;;;4.60;99.90;;;;;;5021587;28;20120;-75
2023/02/16 01:24:37;;;;;;;38.20;19.50;;;4.40;99.90;;;;;;5004876;28;20361;-75
2023/02/16 01:27:03;;;;;;;35.85;19.40;;;4.40;99.90;;;;;;5039409;28;20053;-75
2023/02/16 01:29:28;;;;;;;33.40;18.50;;;4.30;99.90;;;;;;4992162;28;20136;-75
2023/02/16 01:31:54;;;;;;;31.50;17.55;;;4.40;99.90;;;;;;5021412;28;20104;-75
2023/02/16 01:34:20;;;;;;;35.80;19.58;;;4.40;99.90;;;;;;4992584;28;20417;-75
2023/02/16 01:36:46;;;;;;;31.88;18.48;;;4.40;99.90;;;;;;5017827;28;20053;-75
2023/02/16 01:39:17;;;;;;;34.97;18.60;;;4.40;99.90;;;;;;5027809;28;20066;-75
2023/02/16 01:41:47;;;;;;;33.35;18.15;;;4.30;99.90;;;;;;4999150;28;20153;-75
2023/02/16 01:44:16;;;;;;;35.40;18.17;;;4.20;99.90;;;;;;5029968;28;20470;-75
2023/02/16 01:46:51;;;;;;;;;;;4.20;99.90;;;;;;5001578;28;20064;-74
2023/02/16 01:49:19;;;;;;;34.65;19.00;;;4.20;99.90;;;;;;5029118;28;20281;-75
2023/02/16 01:52:11;;;;;;;31.80;16.40;;;4.20;99.90;;;;;;5016647;28;20114;-75
2023/02/16 01:54:42;;;;;;;35.22;20.48;;;4.20;99.90;;;;;;4999638;28;20068;-75
2023/02/16 01:57:07;;;;;;;38.17;20.48;;;4.20;99.90;;;;;;5000322;28;20066;-74
2023/02/16 01:59:40;;;;;;;37.13;20.45;;;4.30;99.90;;;;;;5027795;28;20083;-75
2023/02/16 02:02:35;;;;;;;37.53;21.00;;;4.30;99.90;;;;;;5027355;28;20045;-74
2023/02/16 02:05:34;;;;;;;37.08;20.45;;;4.30;99.90;;;;;;5038338;28;20041;-75
2023/02/16 02:08:09;;;;;;;40.00;22.33;;;4.20;99.90;;;;;;5007042;28;20053;-74
2023/02/16 02:10:44;;;;;;;38.63;21.70;;;4.30;99.90;;;;;;5022283;28;20049;-74
2023/02/16 02:13:26;;;;;;;38.45;21.83;;;4.30;99.90;;;;;;5007089;28;20037;-74
2023/02/16 02:15:52;;;;;;;41.10;22.00;;;4.30;99.90;;;;;;4994109;28;20103;-74
2023/02/16 02:18:18;;;;;;;42.67;23.05;;;4.30;99.90;;;;;;5000409;28;20045;-74
2023/02/16 02:24:38;;;;;;;36.35;20.17;;;4.30;99.90;;;;;;5021605;28;20490;-74
2023/02/16 02:27:23;;;;;;;40.20;22.73;;;4.30;99.90;;;;;;5020816;28;20470;-74
2023/02/16 02:30:07;;;;;;;43.03;21.05;;;4.30;99.90;;;;;;5021709;28;20041;-75
2023/02/16 02:32:53;;;;;;;40.92;22.02;;;4.20;99.90;;;;;;5024825;28;20050;-75
2023/02/16 02:35:42;;;;;;;42.72;23.80;;;4.30;99.90;;;;;;5027175;28;20458;-75
2023/02/16 02:38:14;;;;;;;41.08;22.83;;;4.30;99.90;;;;;;5034155;28;20500;-75
2023/02/16 02:40:52;;;;;;;45.72;26.42;;;4.30;99.90;;;;;;5022111;28;20042;-75
2023/02/16 02:43:49;;;;;;;44.40;23.73;;;4.30;99.90;;;;;;5024748;28;20413;-74
2023/02/16 02:46:26;;;;;;;46.10;26.20;;;4.30;99.90;;;;;;5028747;28;20873;-74
2023/02/16 02:48:52;;;;;;;45.83;25.27;;;4.30;99.90;;;;;;5050603;28;20505;-74
2023/02/16 02:51:29;;;;;;;41.38;22.38;;;4.30;99.90;;;;;;5022827;28;20081;-75
2023/02/16 03:03:47;;;;;;;42.25;23.58;;;4.20;99.90;;;;;;5050562;28;20460;-76
2023/02/16 03:06:25;;;;;;;46.72;24.73;;;4.30;99.90;;;;;;5015571;28;20080;-75
2023/02/16 03:08:56;;;;;;;43.22;23.23;;;4.20;99.90;;;;;;4994786;28;20465;-76
2023/02/16 03:14:37;;;;;;;46.45;24.92;;;4.10;99.90;;;;;;5020405;28;20037;-75
2023/02/16 03:30:52;;;;;;;50.10;25.02;;;4.00;99.90;;;;;;5025471;28;20049;-76
2023/02/16 03:33:18;;;;;;;46.85;26.02;;;4.00;99.90;;;;;;5004512;28;20107;-75
2023/02/16 03:35:43;;;;;;;44.90;24.17;;;4.00;99.90;;;;;;5013201;28;20157;-75
2023/02/16 03:38:09;;;;;;;46.03;24.92;;;4.00;99.90;;;;;;5016437;28;20120;-75
2023/02/16 03:40:38;;;;;;;48.60;25.52;;;4.10;99.90;;;;;;5038165;28;20050;-75
2023/02/16 03:43:05;;;;;;;49.22;26.05;;;3.90;99.90;;;;;;5025227;28;20053;-76
2023/02/16 03:45:31;;;;;;;47.40;25.85;;;3.90;99.90;;;;;;5017958;28;20053;-77
2023/02/16 03:47:57;;;;;;;51.83;26.17;;;3.90;99.90;;;;;;5016911;28;20053;-76
2023/02/16 03:50:25;;;;;;;48.42;24.33;;;4.00;99.90;;;;;;5000336;28;20448;-76
2023/02/16 03:52:51;;;;;;;52.05;27.95;;;3.90;99.90;;;;;;5026469;28;20493;-76
2023/02/16 03:55:16;;;;;;;46.50;25.15;;;4.00;99.90;;;;;;5022478;28;20137;-75
2023/02/16 03:57:42;;;;;;;49.83;26.50;;;4.00;99.90;;;;;;5011620;28;20049;-76
2023/02/16 04:00:09;;;;;;;52.05;27.42;;;4.00;99.90;;;;;;5006250;28;20053;-76
2023/02/16 04:02:34;;;;;;;51.15;26.73;;;3.90;99.90;;;;;;5006832;28;20150;-76
2023/02/16 04:05:00;;;;;;;50.08;26.38;;;3.90;99.90;;;;;;5018535;28;20760;-75
2023/02/16 04:07:26;;;;;;;48.53;26.83;;;3.80;99.90;;;;;;4990803;28;20382;-75
2023/02/16 04:09:52;;;;;;;52.33;27.80;;;3.80;99.90;;;;;;5028478;28;20120;-75
2023/02/16 04:12:35;;;;;;;49.78;25.58;;;3.80;99.90;;;;;;5022132;28;20046;-76
2023/02/16 04:15:07;;;;;;;51.25;27.23;;;3.80;99.90;;;;;;5031243;28;20045;-76
2023/02/16 04:17:32;;;;;;;51.90;26.20;;;3.70;99.90;;;;;;5018976;28;20048;-76
2023/02/16 04:19:58;;;;;;;53.00;27.48;;;3.80;99.90;;;;;;5031148;28;20133;-76
2023/02/16 04:22:24;;;;;;;50.42;26.95;;;3.80;99.90;;;;;;5032244;28;20060;-76
2023/02/16 04:24:50;;;;;;;50.45;26.13;;;3.70;99.90;;;;;;5027006;28;20104;-76
2023/02/16 04:27:15;;;;;;;53.53;27.60;;;3.70;99.90;;;;;;4995697;28;20183;-76
2023/02/16 04:29:41;;;;;;;54.15;28.02;;;3.70;99.90;;;;;;5030805;28;20092;-76
2023/02/16 04:32:07;;;;;;;54.40;26.48;;;3.60;99.90;;;;;;5005550;28;20336;-76
2023/02/16 04:34:32;;;;;;;50.50;25.98;;;3.60;99.90;;;;;;5023067;28;20533;-75
2023/02/16 04:36:58;;;;;;;57.53;28.08;;;3.60;99.90;;;;;;4998572;28;20375;-75
2023/02/16 04:39:27;;;;;;;55.72;27.30;;;3.50;99.90;;;;;;5045286;28;20045;-75
2023/02/16 04:41:52;;;;;;;51.08;26.73;;;3.50;99.90;;;;;;5002951;28;20057;-76
2023/02/16 04:44:18;;;;;;;56.70;28.85;;;3.60;99.90;;;;;;5030001;28;20076;-77
2023/02/16 04:46:47;;;;;;;54.50;27.77;;;3.50;99.90;;;;;;4999998;28;20046;-77
2023/02/16 04:49:13;;;;;;;51.45;27.48;;;3.50;99.90;;;;;;4997193;28;20044;-76
2023/02/16 04:51:39;;;;;;;54.53;28.02;;;3.40;99.90;;;;;;5040910;28;20454;-76
2023/02/16 04:54:05;;;;;;;53.97;28.55;;;3.40;99.90;;;;;;5028191;28;20084;-76
2023/02/16 04:56:31;;;;;;;55.05;28.08;;;3.40;99.90;;;;;;5037042;28;20172;-76
2023/02/16 04:58:57;;;;;;;58.63;29.23;;;3.40;99.90;;;;;;5050753;28;20129;-76
2023/02/16 05:01:25;;;;;;;57.65;27.95;;;3.40;99.90;;;;;;5028333;28;20037;-77
2023/02/16 05:03:51;;;;;;;;;;;3.40;99.90;;;;;;5006135;28;20048;-77
2023/02/16 05:06:16;;;;;;;50.33;27.13;;;3.40;99.90;;;;;;5046354;28;20314;-76
2023/02/16 05:08:42;;;;;;;50.50;26.60;;;3.40;99.90;;;;;;5004203;28;20128;-76
2023/02/16 05:16:37;;;;;;;53.45;26.70;;;3.50;99.90;;;;;;5027895;28;20049;-76
2023/02/16 05:19:02;;;;;;;57.10;28.75;;;3.50;99.90;;;;;;5015914;28;20042;-76
2023/02/16 05:21:31;;;;;;;54.22;27.88;;;3.50;99.90;;;;;;5018129;28;20128;-76
2023/02/16 05:23:57;;;;;;;;;;;3.50;99.90;;;;;;5031486;28;20056;-76
2023/02/16 05:26:22;;;;;;;55.50;25.98;;;3.40;99.90;;;;;;5067453;28;19913;-77
2023/02/16 05:28:48;;;;;;;56.28;26.65;;;3.60;99.90;;;;;;5032211;28;20100;-76
2023/02/16 05:31:14;;;;;;;54.80;27.23;;;3.60;99.90;;;;;;5021731;28;20041;-77
2023/02/16 05:33:40;;;;;;;49.83;27.50;;;3.70;99.90;;;;;;5021737;28;20454;-77
2023/02/16 05:36:06;;;;;;;54.03;26.85;;;3.70;99.90;;;;;;4982498;28;20137;-76
2023/02/16 05:38:31;;;;;;;58.58;27.85;;;3.80;99.90;;;;;;5008186;28;20046;-77
2023/02/16 05:40:58;;;;;;;57.20;27.17;;;3.80;99.90;;;;;;5014112;28;20045;-76
2023/02/16 05:43:24;;;;;;;52.60;27.23;;;3.80;99.90;;;;;;5021583;28;20442;-76
2023/02/16 05:45:50;;;;;;;54.47;26.23;;;3.80;99.90;;;;;;5027126;28;20057;-74
2023/02/16 05:48:15;;;;;;;53.17;26.77;;;3.80;99.90;;;;;;4989461;28;20041;-74
2023/02/16 05:50:41;;;;;;;55.80;27.20;;;3.80;99.90;;;;;;5021070;28;20083;-74
2023/02/16 05:53:07;;;;;;;60.78;29.77;;;3.70;99.90;;;;;;5011704;28;20062;-75
2023/02/16 05:55:32;;;;;;;60.67;30.48;;;3.70;99.90;;;;;;4996950;28;20041;-75
2023/02/16 05:57:58;;;;;;;52.05;26.92;;;3.70;99.90;;;;;;5020887;28;20057;-74
2023/02/16 06:00:24;;;;;;;56.03;28.13;;;3.60;99.90;;;;;;5040284;28;20519;-75
2023/02/16 06:02:50;;;;;;;58.35;28.20;;;3.70;99.90;;;;;;5015915;28;20405;-75
2023/02/16 06:05:16;;;;;;;52.95;27.05;;;3.50;99.90;;;;;;5033316;28;20084;-75
2023/02/16 06:07:41;;;;;;;50.95;26.02;;;3.50;99.90;;;;;;5031619;28;20045;-75
2023/02/16 06:10:08;;;;;;;52.17;27.38;;;3.50;99.90;;;;;;5003937;28;20038;-75
2023/02/16 06:12:33;;;;;;;56.97;26.95;;;3.40;99.90;;;;;;5038698;28;20489;-74
2023/02/16 06:15:00;;;;;;;57.75;27.45;;;3.40;99.90;;;;;;5032106;28;20133;-75
2023/02/16 06:17:27;;;;;;;55.97;29.70;;;3.40;99.90;;;;;;4986367;28;20045;-75
2023/02/16 06:19:53;;;;;;;57.67;28.63;;;3.40;99.90;;;;;;5031998;28;20116;-75
2023/02/16 06:22:19;;;;;;;55.28;26.15;;;3.40;99.90;;;;;;5031516;28;20041;-75
2023/02/16 06:24:45;;;;;;;54.05;28.50;;;3.30;99.90;;;;;;5021048;28;20110;-75
2023/02/16 06:27:12;;;;;;;56.20;27.65;;;3.30;99.90;;;;;;5019809;28;20037;-75
2023/02/16 06:29:38;;;;;;;59.50;29.15;;;3.20;99.90;;;;;;5022477;28;20044;-75
2023/02/16 06:32:03;;;;;;;55.22;29.70;;;3.30;99.90;;;;;;5020958;28;20533;-75
2023/02/16 06:34:29;;;;;;;56.42;28.50;;;3.40;99.90;;;;;;5035280;28;20038;-74
2023/02/16 06:36:55;;;;;;;58.08;29.48;;;3.40;99.90;;;;;;5011754;28;20049;-75
2023/02/16 06:39:21;;;;;;;58.28;28.88;;;3.50;99.90;;;;;;5022436;28;20081;-75
2023/02/16 06:41:46;;;;;;;60.60;28.70;;;3.50;99.90;;;;;;5026622;28;20118;-74
2023/02/16 06:44:14;;;;;;;54.65;27.13;;;3.50;99.90;;;;;;5018401;28;20195;-75
2023/02/16 06:46:40;;;;;;;58.03;28.33;;;3.60;99.90;;;;;;5025822;28;20056;-75
2023/02/16 06:49:06;;;;;;;55.85;27.60;;;3.60;99.90;;;;;;5042871;28;20531;-75
2023/02/16 06:51:32;;;;;;;54.85;25.75;;;3.60;99.90;;;;;;5037397;28;20065;-76
2023/02/16 06:53:58;;;;;;;53.03;26.05;;;3.60;99.90;;;;;;5012385;28;20095;-76
2023/02/16 06:56:24;;;;;;;55.58;27.58;;;3.70;99.90;;;;;;5016109;28;20120;-76
2023/02/16 06:58:50;;;;;;;54.17;26.80;;;3.60;99.90;;;;;;4996824;28;20057;-76
2023/02/16 07:01:21;;;;;;;55.72;27.83;;;3.60;99.90;;;;;;4997472;28;20133;-76
2023/02/16 07:03:49;;;;;;;52.20;26.95;;;3.60;99.90;;;;;;5011683;28;20454;-76
2023/02/16 07:06:15;;;;;;;56.00;28.35;;;3.50;99.90;;;;;;4994422;28;20499;-76
2023/02/16 07:08:40;;;;;;;54.88;29.02;;;3.50;99.90;;;;;;5008770;28;20145;-76
2023/02/16 07:11:06;;;;;;;57.13;26.67;;;3.50;99.90;;;;;;5022438;28;20449;-76
2023/02/16 07:13:35;;;;;;;51.67;26.80;;;3.60;99.90;;;;;;5019179;28;20046;-77
2023/02/16 07:16:04;;;;;;;53.00;26.92;;;3.90;99.90;;;;;;4993400;28;20472;-77
2023/02/16 07:18:30;;;;;;;49.15;24.73;;;3.80;99.90;;;;;;5019038;28;20060;-76
2023/02/16 07:20:56;;;;;;;51.22;24.23;;;3.80;99.90;;;;;;5026848;28;20438;-77
2023/02/16 07:23:22;;;;;;;50.63;25.48;;;3.90;99.90;;;;;;5026951;28;20179;-77
2023/02/16 07:25:48;;;;;;;47.47;25.08;;;4.00;99.90;;;;;;5022574;28;20949;-75
2023/02/16 07:28:14;;;;;;;47.13;24.10;;;4.10;99.90;;;;;;5033620;28;20064;-77
2023/02/16 07:30:40;;;;;;;54.05;25.15;;;4.20;99.90;;;;;;5026436;28;20034;-77
2023/02/16 07:33:06;;;;;;;46.85;24.40;;;4.30;99.90;;;;;;5025269;28;20358;-77
2023/02/16 07:35:32;;;;;;;46.28;23.67;;;4.30;99.90;;;;;;5003568;28;20037;-76
2023/02/16 07:37:58;;;;;;;44.10;23.73;;;4.40;99.90;;;;;;4994539;28;20045;-76
2023/02/16 07:40:24;;;;;;;45.20;24.55;;;4.40;99.90;;;;;;5004777;28;20115;-78
2023/02/16 07:42:50;;;;;;;41.17;21.98;;;4.50;99.90;;;;;;5030106;28;20136;-77
2023/02/16 07:45:16;;;;;;;44.92;23.25;;;4.50;99.90;;;;;;5011280;28;20044;-78
2023/02/16 07:47:41;;;;;;;43.08;22.77;;;4.60;99.90;;;;;;5000018;28;20060;-77
2023/02/16 07:50:08;;;;;;;43.00;23.02;;;4.50;99.90;;;;;;5035329;28;20052;-77
2023/02/16 07:52:35;;;;;;;43.92;22.98;;;4.60;99.90;;;;;;5019059;28;20045;-76
2023/02/16 07:55:00;;;;;;;42.78;22.63;;;4.60;99.90;;;;;;5018793;28;20064;-77
2023/02/16 07:57:26;;;;;;;46.08;23.25;;;4.60;99.90;;;;;;5016200;28;20729;-77
2023/02/16 07:59:52;;;;;;;46.35;24.52;;;4.60;99.90;;;;;;5034955;28;20041;-78
2023/02/16 08:02:18;;;;;;;43.85;22.60;;;4.60;99.90;;;;;;5023270;28;20126;-78
2023/02/16 08:04:45;;;;;;;42.45;23.98;;;4.70;99.90;;;;;;4984058;28;20055;-77
2023/02/16 08:07:12;;;;;;;46.47;24.88;;;4.60;99.90;;;;;;5017780;28;20050;-77
2023/02/16 08:09:39;;;;;;;47.03;24.90;;;4.70;99.90;;;;;;5016385;28;20065;-77
2023/02/16 08:12:07;;;;;;;43.35;23.73;;;4.70;99.90;;;;;;5021902;28;20076;-77
2023/02/16 08:14:33;;;;;;;44.63;23.55;;;4.70;99.90;;;;;;5015940;28;20470;-77
2023/02/16 08:16:59;;;;;;;45.15;24.38;;;4.70;99.90;;;;;;5010224;28;20110;-77
2023/02/16 08:19:26;;;;;;;42.28;24.30;;;4.80;99.90;;;;;;5008922;28;20129;-76
2023/02/16 08:21:51;;;;;;;46.88;24.50;;;4.70;99.90;;;;;;5021993;28;20053;-77
2023/02/16 08:24:18;;;;;;;43.67;22.65;;;4.70;99.90;;;;;;5001587;28;20049;-75
2023/02/16 08:26:48;;;;;;;42.85;22.40;;;4.80;99.90;;;;;;5026390;28;20052;-75
2023/02/16 08:29:16;;;;;;;40.13;22.83;;;4.80;99.90;;;;;;5017920;28;20092;-75
2023/02/16 08:31:43;;;;;;;47.10;22.92;;;4.90;99.90;;;;;;4986905;28;20107;-76
2023/02/16 08:34:08;;;;;;;44.80;24.25;;;4.90;99.90;;;;;;5044624;28;20541;-75
2023/02/16 08:36:37;;;;;;;41.97;23.83;;;5.00;99.90;;;;;;4995301;28;20049;-76
2023/02/16 08:39:14;;;;;;;39.95;22.55;;;5.10;99.90;;;;;;5017103;28;20049;-75
2023/02/16 08:41:40;;;;;;;42.97;24.05;;;5.20;99.90;;;;;;5034859;28;20057;-76
2023/02/16 08:44:07;;;;;;;41.03;22.23;;;5.10;99.90;;;;;;5027808;28;20053;-73
2023/02/16 08:46:36;;;;;;;43.37;23.53;;;5.10;99.90;;;;;;5027617;28;20103;-75
2023/02/16 08:49:03;;;;;;;41.47;20.75;;;5.30;99.90;;;;;;5028124;28;20081;-75
2023/02/16 08:51:31;;;;;;;42.70;23.50;;;5.50;99.90;;;;;;5025427;28;20042;-76
2023/02/16 08:54:00;;;;;;;39.95;21.40;;;5.50;99.90;;;;;;5038683;28;20335;-75
2023/02/16 08:56:28;;;;;;;39.65;21.80;;;5.70;99.90;;;;;;5051430;28;20056;-75
2023/02/16 08:58:54;;;;;;;39.17;22.95;;;5.60;99.90;;;;;;5017401;28;20056;-76
2023/02/16 09:01:22;;;;;;;42.00;21.85;;;5.70;99.90;;;;;;5018197;28;20045;-76
2023/02/16 09:03:49;;;;;;;39.58;21.40;;;5.80;99.90;;;;;;5032473;28;20057;-76
2023/02/16 09:06:16;;;;;;;43.58;23.10;;;5.90;99.90;;;;;;5040818;28;20069;-75
2023/02/16 09:08:45;;;;;;;49.03;22.38;;;6.00;99.90;;;;;;5015515;28;20049;-74
2023/02/16 09:11:12;;;;;;;38.92;21.55;;;6.10;99.90;;;;;;5042961;28;20485;-76
2023/02/16 09:13:39;;;;;;;37.83;21.45;;;6.20;99.90;;;;;;4999062;28;20046;-76
2023/02/16 09:16:15;;;;;;;43.00;22.60;;;6.20;99.90;;;;;;5015188;28;20049;-75
2023/02/16 09:18:41;;;;;;;41.97;21.95;;;6.20;99.90;;;;;;5026823;28;20713;-76
2023/02/16 09:21:09;;;;;;;37.90;21.50;;;6.10;99.90;;;;;;5016910;28;20046;-75
2023/02/16 09:23:41;;;;;;;37.85;20.65;;;6.30;99.90;;;;;;5032940;28;20556;-76
2023/02/16 09:26:08;;;;;;;40.83;20.63;;;6.60;99.90;;;;;;5017026;28;20042;-75
2023/02/16 09:28:35;;;;;;;41.80;21.52;;;6.30;99.90;;;;;;4993481;28;20461;-75
2023/02/16 09:31:14;;;;;;;39.85;20.90;;;6.20;99.90;;;;;;5019467;28;20041;-75
2023/02/16 09:33:45;;;;;;;41.08;21.40;;;6.50;99.90;;;;;;5022281;28;20125;-75
2023/02/16 09:36:12;;;;;;;35.70;19.38;;;6.50;99.90;;;;;;4989384;28;20052;-75
2023/02/16 09:38:38;;;;;;;39.45;20.40;;;6.80;99.90;;;;;;5002318;28;20088;-75
2023/02/16 09:41:10;;;;;;;37.35;18.83;;;6.80;99.90;;;;;;5019566;28;20093;-76
2023/02/16 09:44:09;;;;;;;39.65;21.60;;;7.10;99.90;;;;;;4990788;28;20050;-76
2023/02/16 09:46:36;;;;;;;36.33;21.00;;;7.10;99.90;;;;;;4992270;28;20057;-75
2023/02/16 09:49:02;;;;;;;34.85;20.02;;;7.00;99.90;;;;;;5010827;28;20168;-75
2023/02/16 09:51:57;;;;;;;34.35;20.48;;;7.10;99.90;;;;;;5003657;28;20054;-76
2023/02/16 09:54:48;;;;;;;42.70;20.67;;;7.20;99.90;;;;;;5010357;28;20064;-76
2023/02/16 09:57:22;;;;;;;37.75;20.80;;;7.20;99.90;;;;;;5046230;28;20366;-76
2023/02/16 10:00:10;;;;;;;34.45;20.38;;;7.30;99.90;;;;;;4999933;28;20052;-76
2023/02/16 10:02:49;;;;;;;35.83;19.75;;;7.50;99.90;;;;;;5044447;28;20103;-76
2023/02/16 10:05:19;;;;;;;37.88;20.75;;;7.70;99.90;;;;;;5019389;28;20049;-75
2023/02/16 10:08:06;;;;;;;37.00;20.23;;;8.10;99.90;;;;;;4983497;28;20457;-75
2023/02/16 10:11:36;;;;;;;36.53;20.75;;;8.20;99.90;;;;;;5035667;28;20541;-75
2023/02/16 10:14:16;;;;;;;38.08;21.70;;;8.30;99.90;;;;;;5014824;28;20126;-75
2023/02/16 10:17:14;;;;;;;35.75;20.50;;;8.30;99.90;;;;;;5034296;28;20061;-75
2023/02/16 10:19:47;;;;;;;;;;;8.50;99.90;;;;;;5031542;28;20112;-77
2023/02/16 10:22:20;;;;;;;35.55;20.52;;;8.70;99.90;;;;;;5033667;28;19910;-76
2023/02/16 10:24:59;;;;;;;35.92;20.23;;;9.00;99.90;;;;;;4987829;28;20041;-77
2023/02/16 10:27:28;;;;;;;39.75;19.85;;;9.20;99.90;;;;;;4997918;28;20045;-76
2023/02/16 10:29:54;;;;;;;33.95;20.50;;;9.10;99.90;;;;;;5039584;28;20065;-77
2023/02/16 10:32:28;;;;;;;37.40;20.48;;;9.10;99.90;;;;;;5014485;28;20088;-78
2023/02/16 10:35:17;;;;;;;35.65;22.15;;;9.10;99.90;;;;;;5023031;28;20065;-77
2023/02/16 10:37:45;;;;;;;31.98;19.00;;;9.20;99.90;;;;;;5013550;28;20054;-75
2023/02/16 10:40:11;;;;;;;32.40;19.42;;;9.20;99.90;;;;;;5018066;28;20045;-75
2023/02/16 10:42:52;;;;;;;37.33;19.98;;;9.40;99.90;;;;;;5030490;28;20045;-75
2023/02/16 10:45:32;;;;;;;32.53;19.67;;;9.60;99.90;;;;;;5026923;28;20080;-74
2023/02/16 10:47:58;;;;;;;35.08;20.77;;;9.70;99.60;;;;;;5003388;28;20128;-73
2023/02/16 10:50:27;;;;;;;35.28;19.95;;;9.70;98.70;;;;;;5014247;28;20164;-76
2023/02/16 10:52:58;;;;;;;31.05;18.65;;;9.80;98.90;;;;;;5049141;28;20369;-76
2023/02/16 10:55:25;;;;;;;30.92;19.50;;;9.90;98.70;;;;;;5028473;28;20188;-75
2023/02/16 10:57:58;;;;;;;30.75;18.55;;;9.70;97.80;;;;;;5017050;28;20072;-75
2023/02/16 11:00:45;;;;;;;30.52;18.95;;;9.60;99.00;;;;;;5016876;28;20840;-75
2023/02/16 11:03:11;;;;;;;33.95;19.30;;;9.50;98.30;;;;;;5036304;28;20140;-75
2023/02/16 11:05:38;;;;;;;34.28;19.30;;;9.30;99.30;;;;;;5037857;28;20078;-75
2023/02/16 11:08:05;;;;;;;34.83;19.58;;;9.10;99.90;;;;;;5025431;28;20128;-75
2023/02/16 11:10:40;;;;;;;32.72;19.67;;;8.90;99.90;;;;;;5010550;28;20464;-75
2023/02/16 11:13:06;;;;;;;34.05;20.30;;;8.90;99.90;;;;;;5013588;28;20045;-75
2023/02/16 11:15:35;;;;;;;32.22;19.23;;;8.90;99.90;;;;;;5021584;28;20046;-75
2023/02/16 11:18:04;;;;;;;33.10;19.90;;;8.70;99.90;;;;;;5010156;28;20402;-75
2023/02/16 11:20:34;;;;;;;35.05;20.00;;;8.70;99.90;;;;;;5020622;28;20050;-75
2023/02/16 11:23:12;;;;;;;32.42;18.45;;;8.60;99.90;;;;;;5025113;28;20607;-76
2023/02/16 11:25:38;;;;;;;;;;;8.50;99.90;;;;;;5013821;28;20053;-76
2023/02/16 11:28:04;;;;;;;32.58;19.27;;;8.40;99.90;;;;;;5042947;28;20001;-77
2023/02/16 11:30:35;;;;;;;36.63;20.38;;;8.50;99.90;;;;;;5058654;28;20041;-76
2023/02/16 11:33:17;;;;;;;34.38;19.77;;;8.50;99.90;;;;;;5029681;28;20707;-75
2023/02/16 11:35:43;;;;;;;32.80;19.75;;;8.60;99.90;;;;;;4992676;28;20037;-75
2023/02/16 11:38:32;;;;;;;31.92;18.92;;;8.40;99.90;;;;;;5005533;28;20139;-75
2023/02/16 11:40:59;;;;;;;33.10;20.08;;;8.40;99.90;;;;;;5004474;28;20048;-76
2023/02/16 11:43:27;;;;;;;32.65;20.55;;;8.50;99.90;;;;;;4987605;28;20112;-75
2023/02/16 11:45:58;;;;;;;32.63;19.80;;;8.50;99.90;;;;;;5024159;28;20049;-75
2023/02/16 11:48:27;;;;;;;31.83;19.75;;;8.50;99.90;;;;;;4982095;28;20081;-75
2023/02/16 11:51:00;;;;;;;;;;;8.50;99.90;;;;;;4988667;28;20057;-76
2023/02/16 11:53:31;;;;;;;31.30;18.60;;;8.30;99.90;;;;;;5011351;28;19945;-75
2023/02/16 11:56:09;;;;;;;32.53;20.50;;;8.40;99.90;;;;;;4993933;28;20052;-76
2023/02/16 11:58:35;;;;;;;34.58;20.20;;;8.30;99.90;;;;;;5020037;28;20497;-76
2023/02/16 12:01:01;;;;;;;33.75;19.63;;;8.30;99.90;;;;;;5032383;28;20059;-75
2023/02/16 12:03:41;;;;;;;35.47;20.17;;;8.40;99.90;;;;;;5024534;28;20562;-75
2023/02/16 12:06:15;;;;;;;34.03;20.00;;;8.40;99.90;;;;;;5017977;28;20042;-75
2023/02/16 12:09:04;;;;;;;32.53;19.00;;;8.30;99.90;;;;;;5009076;28;20072;-76
2023/02/16 12:11:45;;;;;;;35.63;19.13;;;8.30;99.90;;;;;;5004646;28;20045;-76
2023/02/16 12:14:45;;;;;;;32.85;20.05;;;8.30;99.90;;;;;;5016677;28;20356;-75
2023/02/16 12:18:00;;;;;;;32.83;20.13;;;8.50;99.90;;;;;;5028456;28;20740;-76
2023/02/16 12:20:44;;;;;;;29.83;18.77;;;8.60;99.90;;;;;;5026672;28;20052;-76
2023/02/16 12:23:33;;;;;;;31.05;18.55;;;8.70;99.90;;;;;;5026827;28;20120;-76
2023/02/16 12:26:32;;;;;;;31.92;19.58;;;8.60;99.90;;;;;;5030086;28;20060;-75
2023/02/16 12:29:19;;;;;;;32.47;17.45;;;8.40;99.90;;;;;;5049793;28;20473;-76
2023/02/16 12:32:07;;;;;;;31.77;17.42;;;8.60;99.90;;;;;;5028464;28;20045;-76
2023/02/16 12:35:23;;;;;;;29.10;17.30;;;9.00;99.90;;;;;;5039415;28;20045;-76
2023/02/16 12:38:13;;;;;;;30.10;18.80;;;10.10;98.20;;;;;;5012645;28;20347;-76
2023/02/16 12:40:48;;;;;;;33.83;20.08;;;9.30;99.90;;;;;;5024784;28;20061;-76
2023/02/16 12:43:20;;;;;;;33.55;19.45;;;9.80;99.60;;;;;;5046181;28;20046;-76
2023/02/16 12:45:46;;;;;;;32.25;19.92;;;10.50;97.50;;;;;;5030775;28;20670;-76
2023/02/16 12:48:29;;;;;;;33.80;19.55;;;10.30;95.30;;;;;;5005995;28;20041;-77
2023/02/16 12:50:55;;;;;;;32.13;20.42;;;9.70;99.10;;;;;;5012686;28;20064;-76
2023/02/16 12:53:26;;;;;;;30.25;18.17;;;9.70;99.00;;;;;;5025554;28;20042;-77
2023/02/16 12:56:17;;;;;;;31.63;19.30;;;10.30;99.90;;;;;;4988809;28;20378;-78
2023/02/16 12:58:45;;;;;;;31.35;18.63;;;9.90;99.90;;;;;;5020601;28;20491;-77
2023/02/16 13:01:20;;;;;;;27.75;17.67;;;9.60;99.90;;;;;;5038141;28;20076;-78
2023/02/16 13:03:52;;;;;;;30.05;17.90;;;9.40;99.90;;;;;;5033962;28;20049;-77
2023/02/16 13:06:26;;;;;;;28.58;17.38;;;9.20;99.90;;;;;;5031595;28;20042;-77
2023/02/16 13:09:16;;;;;;;28.20;17.15;;;9.30;99.90;;;;;;5017614;28;20056;-78
2023/02/16 13:12:05;;;;;;;30.92;17.90;;;9.10;99.90;;;;;;5021269;28;20049;-75
2023/02/16 13:14:32;;;;;;;33.40;19.77;;;8.60;99.90;;;;;;5029579;28;20049;-76
2023/02/16 13:17:15;;;;;;;32.45;18.02;;;8.60;99.90;;;;;;4989817;28;20049;-76
2023/02/16 13:19:42;;;;;;;29.98;18.10;;;8.50;99.90;;;;;;5023969;28;20365;-75
2023/02/16 13:22:16;;;;;;;30.45;18.52;;;8.50;99.90;;;;;;5015336;28;20045;-75
2023/02/16 13:25:15;;;;;;;29.33;17.42;;;8.40;99.90;;;;;;5034031;28;20069;-76
2023/02/16 13:28:26;;;;;;;31.80;18.15;;;8.40;99.90;;;;;;5021913;28;20643;-76
2023/02/16 13:31:21;;;;;;;29.00;17.60;;;8.30;99.90;;;;;;5029527;28;20042;-76
2023/02/16 13:34:04;;;;;;;33.38;18.80;;;8.30;99.90;;;;;;5013085;28;20037;-76
2023/02/16 13:36:53;;;;;;;31.83;18.73;;;8.30;99.90;;;;;;5021729;28;20042;-76
2023/02/16 13:39:35;;;;;;;29.60;18.02;;;8.40;99.90;;;;;;5015486;28;20041;-76
2023/02/16 13:42:22;;;;;;;31.70;17.50;;;8.90;99.90;;;;;;5026158;28;20480;-76